Hackett, Minnesota
Current Conditions -  °F | °C
As of 3:35 PM on Sunday 23 Nov 2014 (Local Time) from KBDE Reporting Station
Light Rain Light Rain  
Wind Chill: 34°   Ceiling: 700
Heat Index: 34°   Visibility: 1mi
Dew Point: 34°   Wind: 0mph
Humidity: 100%   Direction: NA
Pressure: 29.38"   Gusts: NA
Location:  48.5595°N, 94.661°W
Report Text: KBDE 232135Z AUTO 00000KT 1SM -RA BR BKN007 BKN025 OVC031 01/01 A2938 RMK AO2 RAE2059B02UPB2059E25 P0001 T00110011 TSNO
Loading
Personal Weather Stations






























Interactive Weather Map New forecast layout! Learn more

10-Day Weather Forecast

Advertisements
Track Severe Weather on mobile